Time;durP1;ratioP1;P1;durP2;ratioP2;P2;SDS_P1;SDS_P2;PMS_P1;PMS_P2;Temp;Humidity;BMP_temperature;BMP_pressure;BME280_temperature;BME280_humidity;BME280_pressure;Samples;Min_cycle;Max_cycle;Signal;HPM_P1;HPM_P2
2023/08/14 00:00:37;;;;;;;5.70;4.10;;;;;;;17.33;75.97;100096.50;219038;1254;140787;-69
2023/08/14 00:06:01;;;;;;;6.90;4.80;;;;;;;17.32;76.01;100088.83;218321;1255;244120;-69
2023/08/14 00:11:04;;;;;;;12.60;6.30;;;;;;;17.20;75.90;100086.95;218177;1259;141130;-69
2023/08/14 00:16:08;;;;;;;6.10;5.40;;;;;;;17.13;76.29;100080.58;218000;1254;140738;-68
2023/08/14 00:21:12;;;;;;;5.50;4.60;;;;;;;17.07;76.28;100081.58;218004;1257;140388;-69
2023/08/14 00:26:17;;;;;;;6.20;5.60;;;;;;;16.95;76.61;100075.69;218009;1254;141034;-69
2023/08/14 00:31:21;;;;;;;6.20;5.60;;;;;;;16.89;76.76;100069.85;218312;1254;140841;-68
2023/08/14 00:36:25;;;;;;;7.00;5.40;;;;;;;16.84;77.04;100071.09;218053;1255;139734;-68
2023/08/14 00:41:30;;;;;;;7.20;5.60;;;;;;;16.85;77.51;100072.38;218139;1257;140833;-68
2023/08/14 00:46:35;;;;;;;5.40;4.40;;;;;;;16.87;77.62;100075.13;217608;1257;640971;-68
2023/08/14 00:51:39;;;;;;;9.50;5.90;;;;;;;16.83;77.39;100077.77;219215;1256;140921;-68
2023/08/14 00:56:43;;;;;;;11.20;5.60;;;;;;;16.83;77.65;100076.52;218018;1254;140082;-68
2023/08/14 01:01:48;;;;;;;5.60;4.90;;;;;;;16.86;77.85;100080.67;219484;1258;142582;-67
2023/08/14 01:06:53;;;;;;;6.50;5.90;;;;;;;16.84;77.69;100082.19;219467;1256;139757;-68
2023/08/14 01:12:43;;;;;;;9.80;4.90;;;;;;;16.83;77.96;100079.80;218355;1254;140549;-69
2023/08/14 01:17:59;;;;;;;5.60;5.10;;;;;;;16.75;77.66;100079.00;218971;1254;139714;-68
2023/08/14 01:23:35;;;;;;;6.00;5.40;;;;;;;16.65;77.86;100078.69;220618;1254;140479;-68
2023/08/14 01:28:40;;;;;;;6.60;6.00;;;;;;;16.60;78.29;100080.44;219681;1254;141269;-68
2023/08/14 01:33:45;;;;;;;8.90;6.70;;;;;;;16.64;78.88;100078.70;220843;1254;140713;-69
2023/08/14 01:38:55;;;;;;;9.50;5.40;;;;;;;16.71;78.89;100077.81;218279;1254;139655;-68
2023/08/14 01:44:02;;;;;;;9.50;5.70;;;;;;;16.77;79.02;100081.92;219300;1254;140043;-69
2023/08/14 01:49:07;;;;;;;6.90;5.70;;;;;;;16.79;79.09;100083.75;218933;1254;141273;-69
2023/08/14 01:54:11;;;;;;;5.80;5.00;;;;;;;16.79;78.82;100085.63;220032;1254;139838;-69
2023/08/14 01:59:16;;;;;;;6.80;4.70;;;;;;;16.71;78.73;100082.28;217896;1257;140228;-69
2023/08/14 02:04:21;;;;;;;6.80;6.20;;;;;;;16.60;78.70;100076.04;218787;1257;141548;-70
2023/08/14 02:09:25;;;;;;;7.80;5.20;;;;;;;16.52;78.98;100073.31;218600;1254;141102;-69
2023/08/14 02:14:29;;;;;;;7.00;6.00;;;;;;;16.45;79.17;100074.82;218331;1254;140523;-69
2023/08/14 02:19:34;;;;;;;6.90;6.30;;;;;;;16.41;79.60;100065.39;218558;1257;140910;-69
2023/08/14 02:24:39;;;;;;;9.70;6.20;;;;;;;16.39;79.74;100064.63;218650;1254;142262;-69
2023/08/14 02:29:44;;;;;;;7.40;6.20;;;;;;;16.38;79.77;100063.17;218022;1254;139813;-71
2023/08/14 02:34:55;;;;;;;9.70;6.60;;;;;;;16.34;79.91;100062.34;217658;1258;141235;-71
2023/08/14 02:40:01;;;;;;;6.10;5.60;;;;;;;16.28;79.89;100061.20;219186;1254;141246;-68
2023/08/14 02:45:06;;;;;;;6.90;6.00;;;;;;;16.26;80.03;100064.63;218098;1254;140883;-69
2023/08/14 02:50:11;;;;;;;9.60;6.30;;;;;;;16.30;80.23;100066.64;218869;1254;141011;-69
2023/08/14 02:55:16;;;;;;;6.30;5.80;;;;;;;16.29;80.20;100067.48;218026;1254;139744;-68
2023/08/14 03:00:21;;;;;;;6.50;5.80;;;;;;;16.27;80.33;100074.15;219686;1254;140017;-69
2023/08/14 03:05:27;;;;;;;7.30;5.80;;;;;;;16.26;80.77;100075.12;218146;1254;139640;-68
2023/08/14 03:10:32;;;;;;;6.10;5.60;;;;;;;16.32;81.52;100069.98;219673;1254;139626;-67
2023/08/14 03:15:36;;;;;;;4.80;4.40;;;;;;;16.47;82.32;100063.25;218818;1254;140274;-68
2023/08/14 03:20:41;;;;;;;6.90;6.40;;;;;;;16.67;83.13;100062.40;220929;1254;139777;-69
2023/08/14 03:25:47;;;;;;;6.70;6.10;;;;;;;16.92;84.12;100054.19;220674;1254;140812;-68
2023/08/14 03:30:52;;;;;;;6.70;6.10;;;;;;;17.17;84.56;100057.59;219928;1254;139454;-69
2023/08/14 03:35:57;;;;;;;6.30;5.70;;;;;;;17.38;84.70;100056.66;220753;1256;140092;-69
2023/08/14 03:41:04;;;;;;;7.60;5.30;;;;;;;17.56;84.84;100052.31;218869;1256;139987;-68
2023/08/14 03:46:09;;;;;;;5.70;5.20;;;;;;;17.72;84.82;100062.49;218646;1256;140250;-69
2023/08/14 03:51:13;;;;;;;6.20;5.60;;;;;;;17.88;85.06;100070.44;219364;1255;140646;-69
2023/08/14 03:56:17;;;;;;;5.50;5.10;;;;;;;18.04;85.09;100066.98;218575;1256;139917;-69
2023/08/14 04:01:21;;;;;;;10.10;5.90;;;;;;;18.23;85.29;100066.73;218293;1256;139939;-69
2023/08/14 04:06:25;;;;;;;22.80;6.70;;;;;;;18.39;84.87;100066.44;218710;1256;139963;-68
2023/08/14 04:11:30;;;;;;;5.70;5.20;;;;;;;18.50;84.64;100079.02;218730;1256;141000;-70
2023/08/14 04:16:44;;;;;;;6.90;6.00;;;;;;;18.59;84.44;100082.45;218344;1255;140159;-69
2023/08/14 04:21:50;;;;;;;6.60;6.00;;;;;;;18.67;84.35;100089.58;218147;1256;140497;-68
2023/08/14 04:26:55;;;;;;;6.00;5.50;;;;;;;18.80;84.21;100083.34;218494;1256;140760;-69
2023/08/14 04:32:00;;;;;;;6.20;5.50;;;;;;;18.96;84.04;100087.88;218202;1259;140815;-69
2023/08/14 04:37:05;;;;;;;6.00;5.50;;;;;;;19.19;83.99;100100.40;218106;1254;139813;-68
2023/08/14 04:42:10;;;;;;;6.50;6.00;;;;;;;19.48;84.06;100115.95;217987;1254;140490;-68
2023/08/14 04:47:15;;;;;;;7.20;6.60;;;;;;;19.72;84.10;100112.71;218195;1254;141060;-70
2023/08/14 04:52:22;;;;;;;7.30;6.40;;;;;;;19.87;83.86;100112.51;218107;1256;140435;-68
2023/08/14 04:57:26;;;;;;;;;;;;;;;19.99;83.66;100108.91;219553;1256;140382;-68
2023/08/14 05:02:31;;;;;;;7.30;6.60;;;;;;;20.16;83.74;100104.64;218848;1254;128494;-68
2023/08/14 05:07:37;;;;;;;7.00;6.40;;;;;;;20.34;83.61;100102.33;220426;1256;140647;-68
2023/08/14 05:12:41;;;;;;;7.10;6.20;;;;;;;20.47;83.47;100108.63;219389;1254;140724;-67
2023/08/14 05:17:46;;;;;;;7.60;6.50;;;;;;;20.70;83.25;100103.20;219887;1254;140625;-68
2023/08/14 05:22:52;;;;;;;5.60;5.20;;;;;;;21.00;83.31;100097.52;220126;1256;140177;-67
2023/08/14 05:27:57;;;;;;;7.20;6.40;;;;;;;21.28;82.93;100098.55;218425;1256;141109;-68
2023/08/14 05:33:01;;;;;;;8.40;6.40;;;;;;;21.50;82.53;100093.94;219760;1254;141455;-69
2023/08/14 05:38:06;;;;;;;8.40;7.20;;;;;;;21.74;81.89;100092.63;218734;1254;140480;-66
2023/08/14 05:43:12;;;;;;;17.30;7.40;;;;;;;21.92;81.79;100104.08;219172;1254;140116;-68
2023/08/14 05:48:16;;;;;;;8.20;6.40;;;;;;;22.03;81.14;100109.48;218032;1254;140113;-71
2023/08/14 05:53:22;;;;;;;8.50;7.00;;;;;;;22.01;80.75;100115.88;218386;1258;140969;-68
2023/08/14 05:58:27;;;;;;;8.00;6.10;;;;;;;22.14;80.35;100112.91;218448;1256;140739;-67
2023/08/14 06:03:34;;;;;;;7.20;5.70;;;;;;;22.57;79.99;100113.21;218382;1254;140184;-67
2023/08/14 06:08:48;;;;;;;11.90;6.90;;;;;;;22.81;79.13;100118.90;217972;1256;141311;-69
2023/08/14 06:13:53;;;;;;;8.00;6.80;;;;;;;22.78;78.68;100120.30;218312;1258;140943;-69
2023/08/14 06:18:58;;;;;;;7.50;6.80;;;;;;;22.73;78.52;100129.15;218546;1254;139850;-66
2023/08/14 06:24:02;;;;;;;8.40;7.80;;;;;;;22.80;78.73;100127.70;218130;1254;140050;-67
2023/08/14 06:29:07;;;;;;;8.00;7.30;;;;;;;22.85;78.13;100121.41;218385;1254;140280;-67
2023/08/14 06:34:12;;;;;;;7.60;6.80;;;;;;;22.73;77.75;100124.91;218036;1257;142519;-66
2023/08/14 06:39:17;;;;;;;9.10;6.50;;;;;;;22.69;77.58;100121.37;218338;1256;140963;-66
2023/08/14 06:44:23;;;;;;;8.20;7.60;;;;;;;22.67;77.70;100120.46;217824;1256;140567;-65
2023/08/14 06:49:28;;;;;;;8.10;7.20;;;;;;;22.75;77.72;100121.61;218185;1259;139795;-66
2023/08/14 06:54:34;;;;;;;22.60;9.10;;;;;;;23.05;77.90;100121.01;219041;1256;140668;-67
2023/08/14 06:59:39;;;;;;;9.10;7.30;;;;;;;23.29;77.56;100126.30;217887;1257;140896;-68
2023/08/14 07:04:43;;;;;;;7.20;6.60;;;;;;;23.50;77.53;100126.28;218888;1255;140602;-69
2023/08/14 07:09:48;;;;;;;8.00;6.50;;;;;;;23.55;76.90;100135.30;218114;1255;140432;-68
2023/08/14 07:14:53;;;;;;;6.40;5.90;;;;;;;23.53;76.65;100138.30;220468;1256;140579;-71
2023/08/14 07:19:57;;;;;;;6.50;6.00;;;;;;;23.52;76.64;100144.48;220404;1256;140624;-71
2023/08/14 07:25:01;;;;;;;7.80;6.90;;;;;;;23.50;76.43;100149.13;220509;1256;140211;-70
2023/08/14 07:30:07;;;;;;;7.90;7.30;;;;;;;23.91;77.24;100151.73;219341;1256;140966;-71
2023/08/14 07:35:12;;;;;;;8.20;6.40;;;;;;;25.25;78.15;100159.31;217854;1258;140964;-71
2023/08/14 07:40:17;;;;;;;7.10;6.40;;;;;;;26.37;76.37;100158.70;218618;1256;140714;-70
2023/08/14 07:45:22;;;;;;;7.00;6.40;;;;;;;27.30;75.18;100170.41;217559;1259;140781;-71
2023/08/14 07:50:26;;;;;;;7.70;5.50;;;;;;;28.18;73.02;100176.09;217575;1256;141903;-70
2023/08/14 07:55:30;;;;;;;6.80;6.20;;;;;;;28.73;70.85;100171.12;218193;1258;141254;-71
2023/08/14 08:00:35;;;;;;;;;;;;;;;29.23;69.18;100174.95;217840;1256;140880;-69
2023/08/14 08:05:39;;;;;;;6.30;5.80;;;;;;;29.48;66.92;100175.42;218137;1256;127968;-70
2023/08/14 08:10:44;;;;;;;7.00;6.40;;;;;;;29.66;65.32;100178.61;218128;1257;139806;-70
2023/08/14 08:15:48;;;;;;;5.90;5.20;;;;;;;30.01;64.17;100174.34;217938;1256;139186;-68
2023/08/14 08:20:53;;;;;;;;;;;;;;;30.02;62.82;100175.70;217808;1256;139924;-68
2023/08/14 08:25:58;;;;;;;5.60;4.70;;;;;;;29.88;62.24;100171.31;218753;1256;127182;-69
2023/08/14 08:31:02;;;;;;;5.50;4.90;;;;;;;29.98;61.51;100174.97;218612;1256;140188;-68
2023/08/14 08:36:07;;;;;;;6.50;5.10;;;;;;;30.23;61.69;100171.98;219616;1255;139315;-69
2023/08/14 08:41:13;;;;;;;;;;;;;;;30.54;61.22;100166.45;218322;1256;140813;-68
2023/08/14 08:46:22;;;;;;;4.80;4.40;;;;;;;30.80;60.34;100171.62;219182;1256;125374;-69
2023/08/14 08:51:26;;;;;;;12.50;5.90;;;;;;;31.25;59.85;100175.16;218487;1254;139944;-68
2023/08/14 08:56:35;;;;;;;10.70;6.10;;;;;;;31.46;58.70;100166.46;218536;1258;140089;-68
2023/08/14 09:01:42;;;;;;;6.10;5.70;;;;;;;31.51;57.76;100167.34;220745;1255;139782;-68
2023/08/14 09:06:46;;;;;;;6.00;5.40;;;;;;;31.59;57.67;100160.09;220799;1254;139894;-70
2023/08/14 09:11:52;;;;;;;6.00;5.50;;;;;;;31.87;57.24;100153.77;220604;1256;139207;-70
2023/08/14 09:16:58;;;;;;;4.10;3.80;;;;;;;31.77;55.46;100153.59;218183;1256;139751;-70
2023/08/14 09:22:04;;;;;;;5.20;4.70;;;;;;;31.91;55.63;100144.38;220551;1254;139889;-70
2023/08/14 09:27:09;;;;;;;4.40;4.10;;;;;;;32.19;55.22;100154.54;218112;1258;139722;-70
2023/08/14 09:32:13;;;;;;;5.00;4.50;;;;;;;32.42;54.08;100150.73;217797;1254;139724;-70
2023/08/14 09:37:20;;;;;;;4.60;4.00;;;;;;;32.41;52.92;100141.73;217933;1258;139353;-71
2023/08/14 09:42:27;;;;;;;32.30;5.10;;;;;;;32.40;52.56;100135.57;217723;1257;139040;-71
2023/08/14 09:47:31;;;;;;;3.40;3.10;;;;;;;32.61;52.23;100145.57;217573;1257;139232;-71
2023/08/14 09:52:36;;;;;;;3.20;2.60;;;;;;;32.62;50.66;100144.09;217715;1257;141092;-71
2023/08/14 09:57:41;;;;;;;6.40;3.90;;;;;;;32.67;50.38;100142.35;217662;1255;138630;-72
2023/08/14 10:02:47;;;;;;;3.50;3.30;;;;;;;32.54;50.43;100140.27;217735;1257;140092;-69
2023/08/14 10:07:53;;;;;;;3.70;3.40;;;;;;;32.42;49.20;100147.02;218409;1256;139566;-70
2023/08/14 10:13:04;;;;;;;8.50;3.50;;;;;;;32.38;49.11;100145.95;217969;1257;139141;-69
2023/08/14 10:18:22;;;;;;;3.40;3.20;;;;;;;32.62;49.37;100153.71;217943;1254;139041;-67
2023/08/14 10:23:29;;;;;;;3.90;3.40;;;;;;;32.80;49.10;100153.80;217948;1256;138868;-68
2023/08/14 10:28:33;;;;;;;;;;;;;;;32.85;48.31;100150.18;219506;1255;139440;-67
2023/08/14 10:33:38;;;;;;;13.70;4.20;;;;;;;32.57;47.68;100151.58;218302;1259;126057;-67
2023/08/14 10:38:44;;;;;;;4.20;3.90;;;;;;;32.35;48.16;100143.70;217670;1258;139052;-68
2023/08/14 10:43:50;;;;;;;3.70;3.50;;;;;;;32.38;48.16;100143.90;219120;1257;140112;-69
2023/08/14 10:48:54;;;;;;;3.80;2.90;;;;;;;32.56;47.97;100141.70;217992;1256;139071;-70
2023/08/14 10:54:15;;;;;;;3.30;3.10;;;;;;;32.75;47.67;100140.95;217743;1258;139124;-68
2023/08/14 10:59:23;;;;;;;4.00;3.60;;;;;;;32.89;47.44;100136.35;219173;1257;139958;-71
2023/08/14 11:04:27;;;;;;;4.30;4.00;;;;;;;32.78;47.09;100134.21;217884;1254;139338;-70
2023/08/14 11:09:33;;;;;;;4.40;4.00;;;;;;;32.66;47.00;100130.96;219306;1254;140346;-71
2023/08/14 11:14:40;;;;;;;3.10;2.80;;;;;;;32.73;47.12;100126.27;220747;1255;139424;-71
2023/08/14 11:19:43;;;;;;;3.50;3.20;;;;;;;33.03;46.74;100122.55;217978;1258;140017;-70
2023/08/14 11:24:47;;;;;;;3.80;3.30;;;;;;;33.04;46.03;100116.80;218798;1257;152665;-70
2023/08/14 11:29:51;;;;;;;5.50;2.60;;;;;;;32.88;45.09;100114.95;217888;1257;139376;-71
2023/08/14 11:35:00;;;;;;;3.00;2.70;;;;;;;32.69;44.75;100116.41;219129;1253;139522;-70
2023/08/14 11:40:06;;;;;;;4.80;3.00;;;;;;;32.57;44.45;100115.94;218458;1258;140809;-69
2023/08/14 11:45:10;;;;;;;3.40;3.00;;;;;;;32.72;44.65;100117.90;217974;1254;140588;-72
2023/08/14 11:50:16;;;;;;;5.60;3.20;;;;;;;32.68;44.27;100111.20;217768;1256;139086;-70
2023/08/14 11:55:21;;;;;;;5.10;3.10;;;;;;;32.72;44.72;100102.66;217841;1254;140049;-71
2023/08/14 12:00:26;;;;;;;4.00;2.90;;;;;;;32.87;44.59;100111.23;218429;1258;139830;-72
2023/08/14 12:05:36;;;;;;;3.70;3.00;;;;;;;32.84;44.33;100107.33;217908;1258;139790;-70
2023/08/14 12:10:40;;;;;;;3.30;3.00;;;;;;;32.68;43.99;100107.73;218382;1258;139287;-69
2023/08/14 12:15:46;;;;;;;3.40;3.10;;;;;;;32.48;44.43;100107.54;217949;1256;139338;-71
2023/08/14 12:20:56;;;;;;;3.50;3.20;;;;;;;32.64;44.51;100099.55;217947;1258;140155;-69
2023/08/14 12:26:01;;;;;;;3.70;3.40;;;;;;;32.76;44.38;100101.38;217886;1254;139188;-69
2023/08/14 12:31:04;;;;;;;4.00;3.60;;;;;;;32.94;44.78;100098.55;218024;1254;139291;-69
2023/08/14 12:36:10;;;;;;;3.00;2.70;;;;;;;33.14;44.89;100103.73;218017;1257;139046;-69
2023/08/14 12:41:15;;;;;;;3.80;3.30;;;;;;;33.25;44.29;100095.27;217915;1254;140077;-68
2023/08/14 12:46:19;;;;;;;3.60;3.30;;;;;;;33.22;43.90;100096.09;217417;1258;966396;-67
2023/08/14 12:51:24;;;;;;;8.20;3.60;;;;;;;33.28;43.74;100096.25;217654;1257;139063;-67
2023/08/14 12:56:30;;;;;;;3.50;3.10;;;;;;;33.47;43.43;100086.66;219436;1256;141221;-71
2023/08/14 13:01:36;;;;;;;3.00;2.80;;;;;;;33.54;42.74;100080.02;218552;1258;139525;-69
2023/08/14 13:06:40;;;;;;;2.40;2.20;;;;;;;33.39;42.16;100084.45;218433;1256;140027;-70
2023/08/14 13:11:45;;;;;;;3.70;2.70;;;;;;;33.21;41.49;100088.91;218336;1259;139858;-69
2023/08/14 13:16:50;;;;;;;3.30;3.10;;;;;;;33.06;40.98;100086.06;217932;1257;139033;-69
2023/08/14 13:21:55;;;;;;;2.50;2.40;;;;;;;32.99;41.18;100077.61;217935;1259;140181;-69
2023/08/14 13:27:01;;;;;;;3.00;2.80;;;;;;;33.02;41.36;100076.93;218386;1254;139141;-67
2023/08/14 13:32:12;;;;;;;3.50;3.30;;;;;;;32.94;41.07;100069.04;218405;1257;140273;-69
2023/08/14 13:37:16;;;;;;;3.50;2.80;;;;;;;32.87;40.69;100067.29;217980;1254;139604;-69
2023/08/14 13:42:21;;;;;;;3.30;3.10;;;;;;;32.86;40.43;100064.13;218128;1257;139228;-71
2023/08/14 13:47:26;;;;;;;3.80;3.50;;;;;;;32.91;40.51;100061.42;218245;1257;140558;-68
2023/08/14 13:52:40;;;;;;;3.30;3.00;;;;;;;32.97;40.69;100059.13;217730;1255;139497;-69
2023/08/14 13:57:44;;;;;;;4.90;3.20;;;;;;;32.89;39.57;100054.14;218091;1259;139143;-69
2023/08/14 14:02:50;;;;;;;;;;;;;;;32.84;39.33;100051.02;218038;1256;140312;-69
2023/08/14 14:07:55;;;;;;;3.20;3.00;;;;;;;32.87;39.11;100046.55;218473;1254;125575;-67
2023/08/14 14:13:04;;;;;;;8.90;3.10;;;;;;;32.94;38.53;100041.66;218641;1259;138907;-67
2023/08/14 14:18:10;;;;;;;3.50;3.20;;;;;;;32.81;38.00;100043.79;218135;1258;139604;-67
2023/08/14 14:23:14;;;;;;;11.60;3.10;;;;;;;32.79;37.93;100043.77;218305;1258;139169;-69
2023/08/14 14:28:19;;;;;;;3.10;2.90;;;;;;;32.83;38.17;100042.24;218028;1258;139601;-66
2023/08/14 14:33:25;;;;;;;4.10;3.80;;;;;;;32.84;38.23;100042.55;220061;1254;139370;-69
2023/08/14 14:38:30;;;;;;;2.90;2.70;;;;;;;32.82;38.14;100038.05;218972;1258;139219;-68
2023/08/14 14:43:34;;;;;;;4.10;2.90;;;;;;;32.77;37.96;100033.48;219089;1259;139327;-68
2023/08/14 14:48:40;;;;;;;3.80;3.30;;;;;;;32.77;37.85;100034.82;219305;1257;139548;-69
2023/08/14 14:53:45;;;;;;;7.50;3.20;;;;;;;32.59;37.21;100032.15;218606;1259;140447;-69
2023/08/14 14:58:50;;;;;;;4.80;2.70;;;;;;;32.40;37.36;100025.44;218457;1259;139793;-68
2023/08/14 15:03:57;;;;;;;3.90;3.60;;;;;;;32.29;37.16;100019.63;217923;1260;139208;-67
2023/08/14 15:09:03;;;;;;;7.50;3.90;;;;;;;32.14;37.17;100017.09;219421;1254;141084;-68
2023/08/14 15:14:07;;;;;;;3.70;3.40;;;;;;;32.07;36.98;100002.36;219045;1254;140461;-68
2023/08/14 15:19:14;;;;;;;3.00;2.80;;;;;;;32.01;36.83;99999.36;219309;1254;140189;-68
2023/08/14 15:24:19;;;;;;;3.30;3.00;;;;;;;31.95;37.04;99998.31;218579;1257;140406;-68
2023/08/14 15:29:24;;;;;;;9.60;2.80;;;;;;;31.97;37.18;99995.28;217856;1254;139907;-68
2023/08/14 15:34:29;;;;;;;98.80;9.60;;;;;;;31.98;36.94;99990.64;218860;1254;140655;-68
2023/08/14 15:39:35;;;;;;;4.60;3.10;;;;;;;31.98;36.88;99988.05;218180;1260;140876;-70
2023/08/14 15:44:39;;;;;;;4.00;3.60;;;;;;;32.02;36.54;99992.59;217929;1260;139607;-69
2023/08/14 15:49:45;;;;;;;3.40;2.60;;;;;;;31.97;36.18;99994.10;218271;1259;139282;-69
2023/08/14 15:54:49;;;;;;;3.10;2.90;;;;;;;31.92;35.95;99997.95;217977;1259;139485;-69
2023/08/14 15:59:55;;;;;;;3.40;3.20;;;;;;;31.81;35.73;100000.71;217725;1254;138944;-68
2023/08/14 16:04:59;;;;;;;5.00;3.20;;;;;;;31.70;35.60;100000.45;217889;1258;139210;-69
2023/08/14 16:10:04;;;;;;;5.10;3.00;;;;;;;31.58;35.43;100005.82;218315;1258;139651;-67
2023/08/14 16:15:09;;;;;;;3.20;2.70;;;;;;;31.47;35.46;100012.10;218552;1259;139907;-68
2023/08/14 16:20:14;;;;;;;3.00;2.80;;;;;;;31.34;35.68;100014.73;217955;1257;139407;-68
2023/08/14 16:25:18;;;;;;;5.10;3.50;;;;;;;31.24;35.99;100017.92;218317;1256;139773;-68
2023/08/14 16:30:22;;;;;;;34.40;5.70;;;;;;;31.15;35.99;100026.99;219021;1257;140062;-68
2023/08/14 16:35:29;;;;;;;4.40;3.50;;;;;;;31.02;36.50;100037.73;218712;1255;139849;-68
2023/08/14 16:40:33;;;;;;;7.60;3.50;;;;;;;30.88;36.69;100038.86;217995;1260;140631;-68
2023/08/14 16:45:41;;;;;;;9.80;3.10;;;;;;;30.72;36.92;100035.65;219555;1254;140140;-68
2023/08/14 16:50:45;;;;;;;3.80;3.40;;;;;;;30.57;37.34;100033.11;218986;1255;140283;-67
2023/08/14 16:55:52;;;;;;;9.60;4.60;;;;;;;30.37;37.56;100030.48;220321;1254;138998;-68
2023/08/14 17:00:56;;;;;;;4.80;3.80;;;;;;;30.13;37.85;100017.70;220543;1257;139398;-70
2023/08/14 17:06:04;;;;;;;4.80;3.80;;;;;;;29.89;38.18;100010.84;220133;1258;150305;-69
2023/08/14 17:11:07;;;;;;;3.40;3.20;;;;;;;29.71;39.13;100014.02;219256;1256;139934;-68
2023/08/14 17:16:11;;;;;;;4.40;4.10;;;;;;;29.45;40.34;100017.21;219409;1254;139753;-67
2023/08/14 17:21:15;;;;;;;11.90;4.40;;;;;;;29.19;41.47;100024.48;218844;1258;140967;-70
2023/08/14 17:26:19;;;;;;;4.20;3.90;;;;;;;28.92;42.39;100025.70;219066;1254;140527;-69
2023/08/14 17:31:23;;;;;;;5.60;4.80;;;;;;;28.61;43.20;100034.11;217944;1256;139987;-68
2023/08/14 17:36:28;;;;;;;5.20;4.70;;;;;;;28.32;43.99;100042.52;217661;1254;162177;-67
2023/08/14 17:41:32;;;;;;;4.60;3.80;;;;;;;27.94;44.76;100043.28;217838;1254;141107;-68
2023/08/14 17:46:37;;;;;;;4.80;4.50;;;;;;;27.64;45.62;100043.84;218628;1254;140191;-67
2023/08/14 17:51:42;;;;;;;5.30;4.80;;;;;;;27.36;46.44;100041.17;218859;1254;139295;-68
2023/08/14 17:56:45;;;;;;;4.40;4.00;;;;;;;27.09;47.45;100037.13;218558;1257;140599;-68
2023/08/14 18:01:49;;;;;;;5.90;4.60;;;;;;;26.85;48.31;100036.62;219250;1254;139725;-68
2023/08/14 18:06:54;;;;;;;5.10;4.60;;;;;;;26.48;49.06;100040.11;218886;1258;139560;-68
2023/08/14 18:11:58;;;;;;;;;;;;;;;26.07;49.80;100040.85;218758;1256;140420;-67
2023/08/14 18:17:02;;;;;;;5.90;5.30;;;;;;;25.84;50.97;100046.18;219553;1256;126237;-67
2023/08/14 18:22:07;;;;;;;6.60;5.30;;;;;;;25.60;51.79;100049.41;218844;1254;140167;-67
2023/08/14 18:27:12;;;;;;;6.50;5.90;;;;;;;25.29;52.05;100045.73;218595;1254;139890;-67
2023/08/14 18:32:16;;;;;;;8.90;4.80;;;;;;;25.05;52.38;100049.00;218882;1257;139505;-68
2023/08/14 18:37:20;;;;;;;10.00;6.00;;;;;;;24.80;53.06;100059.14;218288;1258;139586;-68
2023/08/14 18:42:24;;;;;;;10.50;5.50;;;;;;;24.51;53.51;100060.35;220426;1254;140600;-67
2023/08/14 18:47:32;;;;;;;8.40;5.20;;;;;;;24.27;54.28;100061.88;219159;1255;139789;-68
2023/08/14 18:52:37;;;;;;;7.50;5.60;;;;;;;24.14;54.72;100067.14;220576;1254;140740;-68
2023/08/14 18:57:43;;;;;;;6.30;4.90;;;;;;;23.98;55.21;100073.77;220421;1254;140398;-68
2023/08/14 19:02:49;;;;;;;8.40;4.80;;;;;;;23.91;55.66;100072.67;218268;1256;140819;-68
2023/08/14 19:10:38;;;;;;;8.10;5.80;;;;;;;23.69;56.32;100072.17;215321;1297;637474;-68
2023/08/14 19:15:49;;;;;;;9.90;6.10;;;;;;;23.36;56.67;100067.79;216577;1270;138803;-67
2023/08/14 19:20:54;;;;;;;7.00;6.30;;;;;;;23.17;57.55;100066.27;216690;1269;865159;-67
2023/08/14 19:25:59;;;;;;;6.20;5.40;;;;;;;23.09;57.75;100067.08;217771;1270;139370;-68
2023/08/14 19:31:14;;;;;;;13.30;5.80;;;;;;;22.92;58.12;100070.20;218480;1266;138187;-68
2023/08/14 19:36:19;;;;;;;17.60;6.30;;;;;;;22.78;58.43;100074.31;217123;1262;138824;-68
2023/08/14 19:41:24;;;;;;;6.50;5.80;;;;;;;22.52;58.75;100078.36;218386;1263;138459;-68
2023/08/14 19:46:27;;;;;;;8.90;6.10;;;;;;;22.30;59.24;100086.84;217591;1266;140199;-68
2023/08/14 19:51:32;;;;;;;6.30;5.80;;;;;;;22.16;59.88;100093.27;217150;1266;138637;-68
2023/08/14 19:56:35;;;;;;;11.30;6.70;;;;;;;22.13;60.43;100094.89;216797;1266;139179;-70
2023/08/14 20:01:39;;;;;;;9.60;5.30;;;;;;;22.04;60.78;100099.56;217340;1267;141330;-70
2023/08/14 20:06:43;;;;;;;9.10;6.20;;;;;;;21.84;60.97;100098.31;216820;1266;139389;-69
2023/08/14 20:11:46;;;;;;;32.70;6.30;;;;;;;21.76;61.35;100099.88;217262;1263;138739;-68
2023/08/14 20:16:51;;;;;;;7.90;6.10;;;;;;;21.62;61.85;100099.44;217884;1264;140334;-67
2023/08/14 20:21:58;;;;;;;11.30;6.60;;;;;;;21.46;62.12;100101.55;217076;1264;140312;-67
2023/08/14 20:27:02;;;;;;;15.00;7.10;;;;;;;21.41;62.58;100101.48;217583;1266;140741;-67
2023/08/14 20:32:08;;;;;;;10.70;8.00;;;;;;;21.35;62.77;100103.33;216956;1263;139409;-68
2023/08/14 20:37:12;;;;;;;8.10;7.20;;;;;;;21.26;63.08;100104.77;219319;1266;140782;-69
2023/08/14 20:42:16;;;;;;;18.40;8.90;;;;;;;21.12;63.31;100103.40;217452;1266;139236;-69
2023/08/14 20:47:20;;;;;;;18.50;7.60;;;;;;;20.98;63.82;100097.27;219731;1266;140338;-69
2023/08/14 20:52:25;;;;;;;10.20;8.00;;;;;;;20.96;64.36;100102.62;217418;1263;140288;-68
2023/08/14 20:57:29;;;;;;;8.20;6.90;;;;;;;20.96;64.63;100107.60;218431;1266;139530;-69
2023/08/14 21:02:33;;;;;;;10.30;6.80;;;;;;;20.93;64.86;100100.59;216918;1266;139718;-68
2023/08/14 21:07:38;;;;;;;9.60;7.10;;;;;;;20.86;65.11;100101.73;217654;1262;140259;-68
2023/08/14 21:12:44;;;;;;;10.10;7.00;;;;;;;20.80;65.51;100100.63;218433;1260;236822;-67
2023/08/14 21:17:48;;;;;;;8.40;7.60;;;;;;;20.78;65.60;100103.16;218443;1258;140977;-67
2023/08/14 21:22:52;;;;;;;9.10;6.70;;;;;;;20.74;65.85;100105.00;218529;1260;140581;-67
2023/08/14 21:27:57;;;;;;;10.00;7.90;;;;;;;20.67;65.88;100096.44;217692;1257;139497;-67
2023/08/14 21:33:01;;;;;;;9.00;8.10;;;;;;;20.61;66.16;100094.51;218692;1255;139722;-68
2023/08/14 21:38:05;;;;;;;75.90;13.90;;;;;;;20.60;66.43;100094.73;217620;1260;139290;-68
2023/08/14 21:43:09;;;;;;;11.70;7.60;;;;;;;20.54;66.36;100090.97;217902;1257;141417;-70
2023/08/14 21:48:13;;;;;;;14.50;7.60;;;;;;;20.47;66.53;100090.15;217694;1257;139681;-69
2023/08/14 21:53:18;;;;;;;9.00;7.50;;;;;;;20.34;66.65;100080.98;218015;1260;140524;-70
2023/08/14 21:58:22;;;;;;;7.40;6.70;;;;;;;20.27;66.92;100084.05;217611;1258;139601;-69
2023/08/14 22:03:26;;;;;;;8.60;7.70;;;;;;;20.17;67.08;100094.58;218520;1256;140109;-70
2023/08/14 22:08:30;;;;;;;8.70;7.70;;;;;;;20.05;67.31;100096.88;218599;1259;140923;-69
2023/08/14 22:13:34;;;;;;;11.00;7.60;;;;;;;19.96;67.51;100089.72;218495;1257;139891;-69
2023/08/14 22:18:37;;;;;;;9.80;7.70;;;;;;;19.91;67.65;100092.31;218156;1257;140126;-69
2023/08/14 22:23:41;;;;;;;7.20;6.60;;;;;;;19.90;67.77;100099.86;217661;1257;139622;-70
2023/08/14 22:28:45;;;;;;;8.50;7.60;;;;;;;19.85;67.82;100096.41;218615;1257;231159;-70
2023/08/14 22:33:48;;;;;;;8.80;7.90;;;;;;;19.73;68.03;100096.48;218198;1257;139666;-70
2023/08/14 22:38:52;;;;;;;8.90;8.10;;;;;;;19.57;68.37;100091.34;217470;1258;141366;-69
2023/08/14 22:43:56;;;;;;;9.10;7.80;;;;;;;19.46;68.52;100092.02;219083;1257;139876;-70
2023/08/14 22:48:59;;;;;;;10.30;8.60;;;;;;;19.40;68.86;100088.21;220371;1257;140596;-70
2023/08/14 22:54:04;;;;;;;9.70;8.70;;;;;;;19.35;68.86;100084.14;218953;1260;139999;-69
2023/08/14 22:59:08;;;;;;;13.50;9.60;;;;;;;19.31;69.00;100082.61;219164;1257;140467;-69
2023/08/14 23:04:11;;;;;;;8.80;8.00;;;;;;;19.26;69.01;100087.09;219011;1257;139907;-70
2023/08/14 23:09:15;;;;;;;13.00;9.10;;;;;;;19.16;69.05;100077.89;219610;1257;140627;-70